Terminal Aerodrome Forecast
Issued by NWS Mobile, AL

Home | Current Version | Previous Version | Text Only | Print | Product List | Glossary On
Versions: 1 2 3 4 5 6 7 8 9 10 11 12 13 14 15 16 17 18 19 20 21
000
FTUS44 KMOB 200520
TAFMOB
TAF
KMOB 200520Z 2006/2106 VRB04KT 6SM BR FEW010
      TEMPO 2006/2008 1SM BR VV004
     FM200800 08004KT 1SM BR VV004
      TEMPO 2008/2012 1/2SM FG VV002
     FM201500 11008KT P6SM FEW010 BKN250=

USA.gov is the U.S. government's official web portal to all federal, state and local government web resources and services.